Flight Track Log - Related Links

Times and Time Zones

All times are in EDT time to prevent confusion due to time zone crossing. See the UCA3598 flight status page for this flight to view local times or setup timezone preferences in your user account.

Time Position Orientation Groundspeed Altitude Reporting Facility
EDT Latitude Longitude Course Direction KTS MPH feet Rate Location/Type
Tue 10:30:21 PM 39.0000 -77.4833 North 118 136 4,000  Level Potomac TRACON
Tue 10:31:16 PM 39.0333 -77.5167 322° Northwest 127 146 5,600 1,537 Climbing Potomac TRACON
Tue 10:32:22 PM 39.0667 -77.5167 360° North 148 170 7,100 1,250 Climbing Potomac TRACON
Tue 10:33:16 PM 39.1167 -77.5000 14° North 175 201 8,100 1,053 Climbing Potomac TRACON
Tue 10:34:00 PM 39.3510 -77.4500 North  Level FlightAware Approximate
Tue 10:34:16 PM 39.1667 -77.5000 360° North 196 226 9,100  Level Potomac TRACON
Tue 10:35:00 PM 39.0207 -77.4500 North  Level FlightAware Approximate
Tue 10:35:16 PM 39.2167 -77.5000 360° North 214 246 10,200  Level Potomac TRACON
Tue 10:36:10 PM 39.2833 -77.4833 11° North 230 265 11,300 1,137 Climbing Potomac TRACON
Tue 10:37:49 PM 39.3844 -77.4842 360° North 240 276 13,100 1,132 Climbing New York Center
Tue 10:38:49 PM 39.4578 -77.4778 North 251 289 14,300 1,200 Climbing New York Center
Tue 10:39:49 PM 39.5356 -77.4689 North 263 303 15,500 1,250 Climbing New York Center
Tue 10:40:49 PM 39.6217 -77.4556 North 275 316 16,800 1,000 Climbing New York Center
Tue 10:41:49 PM 39.6969 -77.4519 North 288 331 17,500 900 Climbing New York Center
Tue 10:42:49 PM 39.7908 -77.4528 360° North 302 348 18,600 750 Climbing New York Center
Tue 10:43:49 PM 39.8681 -77.4519 360° North 312 359 19,000 200 Climbing New York Center
Tue 10:44:49 PM 39.9744 -77.4511 360° North 331 381 19,000  Level New York Center
Tue 10:45:49 PM 40.0633 -77.4244 13° North 354 407 19,000  Level New York Center
Tue 10:46:49 PM 40.1717 -77.3561 26° Northeast 375 432 19,000  Level New York Center
Tue 10:47:49 PM 40.2578 -77.3072 23° Northeast 382 440 19,000  Level New York Center
Tue 10:48:49 PM 40.3614 -77.2433 25° Northeast 377 434 19,000  Level New York Center
Tue 10:49:49 PM 40.4494 -77.1914 24° Northeast 372 428 19,000  Level New York Center
Tue 10:50:49 PM 40.5531 -77.1275 25° Northeast 372 428 19,000  Level New York Center
Tue 10:51:49 PM 40.6414 -77.0753 24° Northeast 372 428 19,000  Level New York Center
Tue 10:52:49 PM 40.7381 -77.0186 24° Northeast 372 428 19,000  Level New York Center
Tue 10:53:49 PM 40.8350 -76.9589 25° Northeast 372 428 19,000 -100 Level New York Center
Tue 10:54:49 PM 40.9317 -76.9017 24° Northeast 372 428 18,800 -450 Descending New York Center
Tue 10:55:49 PM 41.0331 -76.8392 25° Northeast 383 441 18,100 -700 Descending New York Center
Tue 10:56:49 PM 41.1361 -76.7769 24° Northeast 391 450 17,400 -550 Descending New York Center
Tue 10:57:49 PM 41.2350 -76.7167 25° Northeast 391 450 17,000 -150 Descending New York Center
Tue 10:58:49 PM 41.3406 -76.6486 26° Northeast 386 444 17,100 50 Climbing New York Center
Tue 10:59:49 PM 41.4350 -76.5903 25° Northeast 380 437 17,100 -250 Level New York Center
Tue 11:00:49 PM 41.5208 -76.5369 25° Northeast 372 428 16,600 -1,000 Descending New York Center
Tue 11:01:49 PM 41.6197 -76.4733 26° Northeast 377 434 15,100 -1,600 Descending New York Center
Tue 11:02:49 PM 41.7228 -76.4097 25° Northeast 369 425 13,400 950 Descending New York Center
Tue 11:03:49 PM 41.8008 -76.3442 32° Northeast 349 402 17,000 1,800 Climbing New York Center
Tue 11:04:49 PM 41.8661 -76.2853 34° Northeast 300 345 17,000  Level New York Center
Tue 11:05:49 PM 41.9203 -76.2425 30° Northeast 258 297 17,000  Level New York Center
Tue 11:06:49 PM 41.9722 -76.1939 35° Northeast 236 272 17,000  Level New York Center
Tue 11:07:49 PM 42.0244 -76.1450 35° Northeast 214 246 17,000  Level New York Center
Tue 11:08:50 PM 42.0544 -76.0833 57° Northeast 194 223 17,000  Level New York Center
Tue 11:09:49 PM 42.0642 -76.0031 81° East 200 230 17,000  Level New York Center
Tue 11:10:49 PM 42.0778 -75.9314 76° East 200 230 17,000  Level New York Center
Tue 11:11:49 PM 42.1142 -75.9036 30° Northeast 161 185 17,000  Level New York Center
Tue 11:12:49 PM 42.1444 -75.9283 329° Northwest 106 122 17,000  Level New York Center
Tue 11:13:50 PM 42.1706 -75.9500 328° Northwest 106 122 17,000  Level New York Center
Tue 11:14:49 PM 42.1950 -75.9631 338° Northwest 106 122 17,000  Level New York Center
Tue 11:15:49 PM 42.2192 -75.9789 334° Northwest 106 122 17,000  Level New York Center
Tue 11:16:49 PM 42.2456 -75.9950 336° Northwest 106 122 17,000  Level New York Center

Login

Don't have an account? Register now (free) for customized features, flight alerts, and more!